Time;durP1;ratioP1;P1;durP2;ratioP2;P2;SDS_P1;SDS_P2;PMS_P1;PMS_P2;Temp;Humidity;BMP_temperature;BMP_pressure;BME280_temperature;BME280_humidity;BME280_pressure;Samples;Min_cycle;Max_cycle;Signal;HPM_P1;HPM_P2
2023/10/06 00:00:50;;;;;;;12.90;6.20;;;;;;;19.82;49.49;100283.94;5053485;28;20060;-37
2023/10/06 00:03:16;;;;;;;15.13;6.20;;;;;;;19.72;49.15;100281.94;5053644;28;20191;-39
2023/10/06 00:05:42;;;;;;;17.35;6.47;;;;;;;19.63;49.49;100278.00;5053720;28;20555;-39
2023/10/06 00:08:10;;;;;;;15.38;6.10;;;;;;;19.57;49.64;100273.59;5053942;28;20116;-39
2023/10/06 00:10:44;;;;;;;21.13;6.38;;;;;;;19.58;49.84;100270.66;5054222;28;20029;-39
2023/10/06 00:13:12;;;;;;;12.43;6.10;;;;;;;19.71;49.40;100278.38;5054290;28;20066;-40
2023/10/06 00:15:43;;;;;;;14.07;6.35;;;;;;;19.72;49.38;100268.44;5054199;28;20033;-39
2023/10/06 00:18:16;;;;;;;20.30;6.50;;;;;;;19.68;49.60;100272.66;5054001;28;20025;-39
2023/10/06 00:20:48;;;;;;;13.57;6.75;;;;;;;19.72;49.49;100268.44;5054193;28;20186;-39
2023/10/06 00:23:21;;;;;;;14.30;6.10;;;;;;;19.82;49.04;100270.44;5054110;28;20033;-39
2023/10/06 00:25:54;;;;;;;13.05;6.43;;;;;;;19.64;49.08;100268.84;5054503;28;20074;-40
2023/10/06 00:28:32;;;;;;;12.98;6.20;;;;;;;19.57;50.00;100263.63;5054093;28;20029;-40
2023/10/06 00:31:06;;;;;;;12.75;6.38;;;;;;;19.56;49.96;100258.50;5054193;28;20040;-39
2023/10/06 00:33:37;;;;;;;15.02;6.40;;;;;;;19.46;50.30;100259.19;5053604;28;20452;-40
2023/10/06 00:36:29;;;;;;;10.85;6.22;;;;;;;19.29;50.59;100259.22;5053771;28;20100;-40
2023/10/06 00:38:50;;;;;;;14.77;6.53;;;;;;;19.30;50.79;100271.63;5053446;28;20236;-40
2023/10/06 00:41:17;;;;;;;13.02;6.78;;;;;;;19.46;50.77;100268.09;5054059;28;20056;-40
2023/10/06 00:43:46;;;;;;;11.90;6.68;;;;;;;19.56;50.79;100275.50;5053079;28;20090;-40
2023/10/06 00:46:18;;;;;;;17.08;6.57;;;;;;;19.67;50.13;100273.75;5053109;28;20029;-40
2023/10/06 00:48:56;;;;;;;16.33;6.68;;;;;;;19.55;50.29;100265.75;5052488;28;20057;-45
2023/10/06 00:51:26;;;;;;;13.15;6.53;;;;;;;19.65;50.04;100268.59;5053393;28;20099;-47
2023/10/06 00:53:56;;;;;;;12.85;6.43;;;;;;;19.49;50.02;100261.34;5053357;28;20033;-45
2023/10/06 00:56:23;;;;;;;17.17;6.80;;;;;;;19.59;50.12;100260.66;5053502;28;20029;-44
2023/10/06 00:58:49;;;;;;;15.63;6.35;;;;;;;19.63;49.71;100246.44;5053470;28;20070;-41
2023/10/06 01:01:18;;;;;;;17.17;6.32;;;;;;;19.78;49.44;100251.25;5053448;28;20053;-43
2023/10/06 01:03:44;;;;;;;16.27;6.25;;;;;;;19.74;48.73;100247.38;5053098;28;20082;-45
2023/10/06 01:06:17;;;;;;;15.18;6.63;;;;;;;19.52;49.66;100248.19;5053171;28;20040;-45
2023/10/06 01:08:52;;;;;;;14.90;6.70;;;;;;;19.40;49.91;100250.19;5053183;28;20037;-46
2023/10/06 01:11:17;;;;;;;12.93;6.40;;;;;;;19.47;49.93;100250.00;5053222;28;20051;-43
2023/10/06 01:13:56;;;;;;;13.63;6.22;;;;;;;19.54;50.07;100240.66;5053145;28;20032;-43
2023/10/06 01:16:30;;;;;;;13.90;6.57;;;;;;;19.49;50.34;100248.66;5053150;28;20049;-44
2023/10/06 01:19:14;;;;;;;16.20;6.70;;;;;;;19.62;50.37;100249.38;5052899;28;20036;-44
2023/10/06 01:21:40;;;;;;;13.18;6.53;;;;;;;19.46;50.56;100253.78;5052392;28;20086;-47
2023/10/06 01:24:11;;;;;;;12.68;6.72;;;;;;;19.46;50.62;100262.69;5052986;28;20035;-45
2023/10/06 01:26:41;;;;;;;15.65;7.03;;;;;;;19.60;50.19;100252.34;5053000;28;20509;-45
2023/10/06 01:29:10;;;;;;;18.38;7.57;;;;;;;19.60;49.70;100255.03;5052540;28;20033;-45
2023/10/06 01:31:41;;;;;;;18.23;6.88;;;;;;;19.50;49.73;100255.72;5051186;28;20040;-46
2023/10/06 01:34:12;;;;;;;17.55;6.63;;;;;;;19.57;50.45;100243.91;5052607;28;20056;-45
2023/10/06 01:36:38;;;;;;;14.18;6.65;;;;;;;19.66;49.77;100247.81;5052395;28;20032;-43
2023/10/06 01:39:05;;;;;;;11.02;6.50;;;;;;;19.55;50.29;100254.94;5052520;28;20025;-44
2023/10/06 01:41:34;;;;;;;15.23;6.90;;;;;;;19.51;50.06;100260.06;5052567;28;20036;-46
2023/10/06 01:44:01;;;;;;;15.45;6.63;;;;;;;19.50;50.19;100265.72;5052592;28;20480;-45
2023/10/06 01:46:28;;;;;;;12.82;6.40;;;;;;;19.34;50.92;100259.28;5052373;28;20029;-44
2023/10/06 01:48:53;;;;;;;12.93;6.40;;;;;;;19.45;50.51;100257.53;5052238;28;20205;-47
2023/10/06 01:51:19;;;;;;;13.55;7.28;;;;;;;19.49;50.43;100264.88;5052400;28;20509;-44
2023/10/06 01:53:44;;;;;;;13.07;6.40;;;;;;;19.43;50.48;100265.06;5033144;28;20025;-43
2023/10/06 01:56:10;;;;;;;13.60;6.50;;;;;;;19.50;50.50;100266.50;5032316;28;20482;-43
2023/10/06 01:58:36;;;;;;;13.48;6.78;;;;;;;19.38;50.13;100265.81;5032285;28;20031;-43
2023/10/06 02:01:05;;;;;;;15.25;7.35;;;;;;;19.33;50.13;100254.94;5031729;28;20418;-45
2023/10/06 02:03:37;;;;;;;12.45;6.68;;;;;;;19.41;49.93;100257.22;5032347;28;20068;-44
2023/10/06 02:06:03;;;;;;;14.20;6.70;;;;;;;19.41;49.62;100256.41;5032089;28;20508;-46
2023/10/06 02:08:30;;;;;;;16.98;6.50;;;;;;;19.45;49.78;100252.94;5031621;28;20037;-43
2023/10/06 02:10:55;;;;;;;15.00;6.80;;;;;;;19.53;49.93;100262.50;5032219;28;20025;-44
2023/10/06 02:13:21;;;;;;;12.23;6.82;;;;;;;19.56;49.14;100263.88;5031787;28;20106;-44
2023/10/06 02:15:58;;;;;;;12.77;6.70;;;;;;;19.62;49.56;100262.88;5032037;28;20029;-45
2023/10/06 02:18:35;;;;;;;18.30;7.97;;;;;;;19.51;49.58;100265.47;5031738;28;20458;-43
2023/10/06 02:21:24;;;;;;;18.58;9.00;;;;;;;19.41;50.16;100270.72;5041539;28;20047;-46
2023/10/06 02:23:52;;;;;;;18.73;8.63;;;;;;;19.29;50.33;100259.22;5051514;28;20036;-44
2023/10/06 02:26:18;;;;;;;12.98;6.97;;;;;;;19.42;50.55;100266.97;5050984;28;20100;-44
2023/10/06 02:28:48;;;;;;;11.73;6.20;;;;;;;19.58;49.96;100269.84;5051919;28;20544;-45
2023/10/06 02:31:14;;;;;;;19.65;6.72;;;;;;;19.42;49.85;100263.41;5051727;28;20129;-43
2023/10/06 02:33:40;;;;;;;18.15;6.68;;;;;;;19.54;49.88;100269.53;5051415;28;20456;-47
2023/10/06 02:36:22;;;;;;;16.05;6.57;;;;;;;19.52;49.91;100264.38;5051892;28;20025;-44
2023/10/06 02:38:48;;;;;;;11.88;6.40;;;;;;;19.46;50.01;100276.19;5051787;28;20087;-46
2023/10/06 02:41:18;;;;;;;14.15;6.93;;;;;;;19.33;50.37;100269.25;5051594;28;20047;-42
2023/10/06 02:43:50;;;;;;;14.25;6.88;;;;;;;19.44;49.92;100266.69;5051091;28;20512;-41
2023/10/06 02:46:16;;;;;;;13.55;6.93;;;;;;;19.47;50.09;100264.31;5051685;28;20128;-47
2023/10/06 02:48:52;;;;;;;12.48;7.15;;;;;;;19.46;50.09;100269.97;5051082;28;20112;-45
2023/10/06 02:51:20;;;;;;;12.57;6.75;;;;;;;19.41;49.89;100265.31;5051119;28;20477;-44
2023/10/06 02:53:50;;;;;;;17.73;8.65;;;;;;;19.40;50.16;100277.19;5051255;28;20025;-43
2023/10/06 02:56:21;;;;;;;12.90;6.65;;;;;;;19.34;50.52;100270.06;5051086;28;20205;-44
2023/10/06 02:58:46;;;;;;;10.85;6.20;;;;;;;19.30;50.49;100266.22;5051396;28;20025;-44
2023/10/06 03:01:11;;;;;;;16.23;6.20;;;;;;;19.11;50.44;100269.22;5050854;28;20369;-47
2023/10/06 03:03:37;;;;;;;15.57;6.30;;;;;;;19.03;51.24;100266.13;5051182;28;20051;-43
2023/10/06 03:06:07;;;;;;;11.50;6.05;;;;;;;18.74;51.77;100263.47;5050720;28;20029;-46
2023/10/06 03:08:35;;;;;;;10.82;6.43;;;;;;;18.71;51.39;100251.28;5051196;28;20033;-44
2023/10/06 03:11:01;;;;;;;13.18;6.07;;;;;;;18.79;51.58;100258.19;5050957;28;20468;-43
2023/10/06 03:13:33;;;;;;;13.85;6.10;;;;;;;18.84;51.48;100260.16;5050232;28;20041;-44
2023/10/06 03:16:00;;;;;;;11.27;6.15;;;;;;;18.74;51.51;100261.59;5050792;28;20058;-45
2023/10/06 03:18:26;;;;;;;13.85;6.63;;;;;;;18.92;51.05;100260.56;5050495;28;20098;-46
2023/10/06 03:21:12;;;;;;;13.30;6.15;;;;;;;18.78;51.33;100253.84;5050825;28;20025;-42
2023/10/06 03:23:38;;;;;;;19.45;6.63;;;;;;;18.84;51.27;100260.16;5050663;28;20067;-45
2023/10/06 03:26:29;;;;;;;12.25;6.00;;;;;;;18.69;51.64;100250.72;5050637;28;20031;-44
2023/10/06 03:29:01;;;;;;;14.15;6.25;;;;;;;18.66;51.79;100261.19;5050391;28;20477;-42
2023/10/06 03:31:44;;;;;;;11.80;6.28;;;;;;;18.80;51.54;100256.28;5051053;28;20146;-43
2023/10/06 03:34:15;;;;;;;14.70;6.45;;;;;;;18.68;51.41;100251.78;5050451;28;20033;-40
2023/10/06 03:36:46;;;;;;;15.23;6.88;;;;;;;18.72;51.56;100255.63;5051161;28;20411;-44
2023/10/06 03:39:13;;;;;;;12.25;6.50;;;;;;;18.70;51.74;100255.06;5050455;28;20389;-42
2023/10/06 03:41:41;;;;;;;11.98;6.68;;;;;;;18.63;51.64;100251.72;5050819;28;20025;-43
2023/10/06 03:44:07;;;;;;;13.85;6.05;;;;;;;18.65;51.92;100256.84;5050659;28;20170;-42
2023/10/06 03:46:38;;;;;;;12.20;6.78;;;;;;;18.56;52.19;100251.03;5051067;28;20066;-43
2023/10/06 03:49:07;;;;;;;11.82;6.35;;;;;;;18.55;52.32;100258.31;5050417;28;20457;-43
2023/10/06 03:51:38;;;;;;;12.52;6.80;;;;;;;18.54;52.30;100258.56;5050658;28;20151;-45
2023/10/06 03:54:04;;;;;;;15.82;7.07;;;;;;;18.56;52.16;100259.97;5050438;28;20029;-44
2023/10/06 03:56:30;;;;;;;12.38;6.60;;;;;;;18.50;52.16;100258.22;5050487;28;20033;-43
2023/10/06 03:58:55;;;;;;;14.63;6.78;;;;;;;18.50;52.17;100266.31;5050607;28;20036;-46
2023/10/06 04:01:26;;;;;;;10.57;5.90;;;;;;;18.46;52.01;100261.66;5050212;28;20479;-41
2023/10/06 04:03:58;;;;;;;15.55;6.57;;;;;;;18.46;52.15;100259.78;5050824;28;20033;-42
2023/10/06 04:06:26;;;;;;;12.85;6.53;;;;;;;18.38;52.40;100262.06;5051025;28;20067;-41
2023/10/06 04:08:53;;;;;;;15.32;6.47;;;;;;;18.42;53.25;100261.31;5050831;28;20028;-46
2023/10/06 04:11:19;;;;;;;12.60;6.47;;;;;;;18.49;52.46;100269.25;5050829;28;20032;-42
2023/10/06 04:13:45;;;;;;;16.90;6.47;;;;;;;18.27;52.53;100264.56;5050713;28;20036;-43
2023/10/06 04:16:14;;;;;;;13.32;6.47;;;;;;;18.35;52.81;100276.81;5051010;28;20029;-44
2023/10/06 04:18:41;;;;;;;13.98;6.82;;;;;;;18.22;52.73;100277.94;5050957;28;20119;-44
2023/10/06 04:21:11;;;;;;;14.15;6.65;;;;;;;17.97;53.50;100284.47;5050686;28;20056;-42
2023/10/06 04:23:42;;;;;;;15.23;6.82;;;;;;;18.04;53.40;100283.50;5051441;28;20092;-43
2023/10/06 04:26:09;;;;;;;14.82;6.65;;;;;;;18.25;53.24;100285.53;5053994;28;20386;-45
2023/10/06 04:28:36;;;;;;;16.73;6.93;;;;;;;18.29;53.37;100286.69;5041016;28;20056;-44
2023/10/06 04:31:01;;;;;;;17.15;7.57;;;;;;;18.46;54.88;100292.09;5044025;28;20048;-42
2023/10/06 04:33:30;;;;;;;11.93;6.82;;;;;;;18.27;53.80;100294.19;5062140;28;20488;-45
2023/10/06 04:35:55;;;;;;;15.17;6.27;;;;;;;17.84;54.86;100300.91;5074364;28;20405;-41
2023/10/06 04:38:22;;;;;;;18.45;6.50;;;;;;;17.91;54.29;100300.75;5065461;28;20023;-42
2023/10/06 04:40:48;;;;;;;17.95;7.20;;;;;;;18.07;54.69;100309.97;5060333;28;20027;-44
2023/10/06 04:43:14;;;;;;;13.02;6.50;;;;;;;18.21;53.28;100305.13;5073023;28;20031;-44
2023/10/06 04:45:40;;;;;;;15.75;6.32;;;;;;;17.84;54.50;100308.09;5064124;28;20025;-47
2023/10/06 04:48:09;;;;;;;14.68;6.50;;;;;;;17.96;54.54;100307.06;5065525;28;20028;-43
2023/10/06 04:50:35;;;;;;;16.45;6.45;;;;;;;17.98;55.23;100310.34;5073754;28;20070;-45
2023/10/06 04:53:01;;;;;;;13.63;6.53;;;;;;;18.12;54.97;100313.56;5074033;28;20028;-42
2023/10/06 04:55:31;;;;;;;13.15;6.20;;;;;;;18.16;53.82;100311.22;5073591;28;20029;-45
2023/10/06 04:57:56;;;;;;;13.38;6.90;;;;;;;18.34;53.66;100313.72;5072577;28;20032;-41
2023/10/06 05:00:22;;;;;;;17.52;6.30;;;;;;;18.10;53.39;100318.38;5071669;28;20052;-42
2023/10/06 05:02:50;;;;;;;15.65;6.30;;;;;;;18.38;52.73;100324.03;5052678;28;20459;-44
2023/10/06 05:05:21;;;;;;;19.52;7.00;;;;;;;18.50;52.26;100325.59;5043448;28;20048;-41
2023/10/06 05:07:48;;;;;;;21.85;6.78;;;;;;;18.53;53.45;100327.00;5043624;28;20029;-43
2023/10/06 05:10:18;;;;;;;18.52;6.35;;;;;;;18.61;53.47;100323.09;5047911;28;20381;-42
2023/10/06 05:12:43;;;;;;;;;;;;;;;19.36;50.94;100323.78;5046023;28;20178;-42
2023/10/06 05:15:14;;;;;;;11.88;6.18;;;;;;;19.14;51.99;100333.44;5051784;28;19974;-41
2023/10/06 05:17:39;;;;;;;15.00;6.68;;;;;;;19.64;50.68;100331.75;5051884;28;20465;-43
2023/10/06 05:20:13;;;;;;;15.00;6.40;;;;;;;19.73;49.44;100329.47;5052587;28;20264;-44
2023/10/06 05:22:40;;;;;;;10.45;5.78;;;;;;;19.18;50.35;100328.38;5052948;28;20021;-41
2023/10/06 05:25:12;;;;;;;12.15;6.05;;;;;;;19.52;50.37;100331.84;5052960;28;20463;-43
2023/10/06 05:27:38;;;;;;;13.07;6.25;;;;;;;19.60;50.06;100338.72;5052638;28;20400;-43
2023/10/06 05:30:05;;;;;;;12.38;5.88;;;;;;;19.40;50.70;100331.16;5048705;28;20035;-43
2023/10/06 05:32:30;;;;;;;10.55;5.90;;;;;;;19.38;52.24;100338.69;5052439;28;20166;-43
2023/10/06 05:34:57;;;;;;;11.50;5.43;;;;;;;19.59;50.98;100333.56;5037376;28;20037;-45
2023/10/06 05:37:23;;;;;;;13.02;5.70;;;;;;;19.65;50.61;100344.19;5031427;28;20441;-42
2023/10/06 05:39:49;;;;;;;18.55;5.72;;;;;;;19.84;50.46;100333.13;5032287;28;20101;-43
2023/10/06 05:42:14;;;;;;;9.23;5.47;;;;;;;19.69;50.82;100339.91;5048606;28;20040;-41
2023/10/06 05:44:41;;;;;;;13.60;5.60;;;;;;;19.69;50.15;100333.72;5047763;28;20393;-42
2023/10/06 05:47:08;;;;;;;14.20;6.13;;;;;;;19.83;49.97;100339.59;5051747;28;20029;-42
2023/10/06 05:49:38;;;;;;;20.83;7.00;;;;;;;20.21;48.86;100336.00;5052715;28;20024;-43
2023/10/06 05:52:10;;;;;;;12.38;6.03;;;;;;;20.65;47.38;100335.13;5052631;28;20045;-43
2023/10/06 05:54:36;;;;;;;13.05;7.60;;;;;;;20.72;46.84;100340.34;5051407;28;20049;-44
2023/10/06 05:57:04;;;;;;;13.63;6.72;;;;;;;20.62;47.19;100336.47;5050716;28;20031;-44
2023/10/06 05:59:30;;;;;;;13.73;6.60;;;;;;;20.88;47.00;100331.28;5052073;28;20065;-43
2023/10/06 06:02:00;;;;;;;15.25;6.57;;;;;;;20.88;46.76;100336.69;5052140;28;20037;-42
2023/10/06 06:04:30;;;;;;;16.00;7.07;;;;;;;21.08;46.01;100333.34;5051051;28;20108;-43
2023/10/06 06:07:02;;;;;;;19.75;7.70;;;;;;;21.18;45.94;100340.72;5048823;28;20052;-44
2023/10/06 06:09:27;;;;;;;12.60;6.15;;;;;;;21.17;45.63;100342.63;5050028;28;20024;-42
2023/10/06 06:11:53;;;;;;;12.10;6.13;;;;;;;21.06;45.95;100335.50;5050124;28;20082;-43
2023/10/06 06:14:21;;;;;;;17.50;6.50;;;;;;;21.31;45.74;100340.28;5049947;28;20340;-42
2023/10/06 06:16:47;;;;;;;11.73;6.80;;;;;;;21.33;45.65;100348.94;5049990;28;20040;-44
2023/10/06 06:19:14;;;;;;;11.73;6.10;;;;;;;21.48;45.49;100345.56;5050005;28;20031;-42
2023/10/06 06:21:39;;;;;;;12.52;6.05;;;;;;;21.80;44.54;100341.94;5051833;28;20024;-42
2023/10/06 06:24:08;;;;;;;16.15;6.30;;;;;;;22.15;44.14;100345.88;5051484;28;20573;-42
2023/10/06 06:26:37;;;;;;;14.18;6.13;;;;;;;22.42;43.74;100351.94;5051353;28;20404;-41
2023/10/06 06:29:08;;;;;;;12.73;6.05;;;;;;;22.20;43.68;100354.03;5051739;28;20039;-42
2023/10/06 06:31:34;;;;;;;16.17;7.25;;;;;;;22.11;44.43;100356.44;5051288;28;20029;-43
2023/10/06 06:34:06;;;;;;;15.27;7.50;;;;;;;22.37;43.49;100353.84;5051356;28;20209;-40
2023/10/06 06:36:32;;;;;;;18.88;7.70;;;;;;;22.70;43.06;100346.31;5051335;28;20498;-42
2023/10/06 06:38:58;;;;;;;13.65;6.55;;;;;;;22.74;43.31;100353.66;5051336;28;20020;-43
2023/10/06 06:41:24;;;;;;;16.38;7.97;;;;;;;22.78;43.04;100343.06;5051486;28;20124;-45
2023/10/06 06:43:57;;;;;;;13.27;6.25;;;;;;;22.60;43.38;100347.94;5051444;28;20028;-42
2023/10/06 06:46:23;;;;;;;13.77;6.30;;;;;;;23.07;42.93;100351.50;5050979;28;20051;-45
2023/10/06 06:48:49;;;;;;;12.75;6.68;;;;;;;23.38;42.07;100346.03;5051308;28;20032;-42
2023/10/06 06:51:14;;;;;;;13.63;6.35;;;;;;;23.00;42.42;100346.34;5051110;28;20124;-45
2023/10/06 06:53:39;;;;;;;15.93;6.25;;;;;;;23.49;41.61;100355.00;5051041;28;20044;-42
2023/10/06 06:56:06;;;;;;;9.98;6.03;;;;;;;23.59;41.47;100357.72;5051206;28;20104;-43
2023/10/06 06:58:32;;;;;;;11.27;5.85;;;;;;;23.60;41.21;100356.59;5050381;28;20029;-45
2023/10/06 07:00:58;;;;;;;13.68;6.07;;;;;;;23.81;41.28;100354.69;5050424;28;20539;-42
2023/10/06 07:03:24;;;;;;;14.07;6.38;;;;;;;24.03;40.86;100356.22;5051693;28;20032;-44
2023/10/06 07:05:50;;;;;;;15.95;7.32;;;;;;;23.95;41.25;100346.72;5051258;28;20468;-44
2023/10/06 07:08:16;;;;;;;16.08;7.10;;;;;;;24.02;40.98;100349.97;5051472;28;20130;-42
2023/10/06 07:11:03;;;;;;;18.73;7.00;;;;;;;24.21;40.73;100344.72;5050790;28;20025;-42
2023/10/06 07:13:28;;;;;;;20.45;6.35;;;;;;;24.55;40.04;100354.91;5050567;28;20037;-42
2023/10/06 07:15:54;;;;;;;15.70;7.30;;;;;;;24.72;40.08;100349.88;5050704;28;20028;-43
2023/10/06 07:18:19;;;;;;;13.75;6.75;;;;;;;24.87;39.76;100357.13;5051157;28;20025;-41
2023/10/06 07:20:45;;;;;;;13.05;6.53;;;;;;;24.59;40.38;100358.69;5050869;28;20032;-43
2023/10/06 07:23:11;;;;;;;16.65;7.40;;;;;;;24.55;40.48;100352.97;5050820;28;20033;-49
2023/10/06 07:25:37;;;;;;;13.80;6.55;;;;;;;24.78;40.39;100351.47;5050725;28;20159;-42
2023/10/06 07:28:05;;;;;;;18.60;7.20;;;;;;;24.89;40.26;100354.94;5050555;28;20025;-43
2023/10/06 07:30:34;;;;;;;15.90;6.97;;;;;;;25.02;39.99;100358.09;5050574;28;20033;-45
2023/10/06 07:33:00;;;;;;;18.75;7.93;;;;;;;25.17;39.83;100360.69;5051132;28;20554;-44
2023/10/06 07:35:47;;;;;;;14.90;6.78;;;;;;;25.30;39.39;100343.72;5050754;28;20086;-44
2023/10/06 07:38:13;;;;;;;14.70;7.15;;;;;;;24.69;39.73;100353.16;5050755;28;20029;-42
2023/10/06 07:40:40;;;;;;;12.77;6.25;;;;;;;24.74;40.36;100352.31;5050692;28;20112;-42
2023/10/06 07:43:07;;;;;;;13.23;6.53;;;;;;;25.28;39.05;100337.72;5050755;28;20087;-42
2023/10/06 07:45:34;;;;;;;14.18;6.50;;;;;;;25.22;39.21;100332.59;5050570;28;20049;-43
2023/10/06 07:47:59;;;;;;;16.48;6.07;;;;;;;25.74;38.33;100342.72;5050465;28;20057;-43
2023/10/06 07:50:26;;;;;;;13.57;5.88;;;;;;;26.15;38.20;100330.50;5050042;28;20503;-41
2023/10/06 07:52:52;;;;;;;13.60;6.45;;;;;;;26.26;38.09;100340.16;5050705;28;20035;-41
2023/10/06 07:55:21;;;;;;;15.55;6.47;;;;;;;26.30;37.44;100343.94;5050961;28;20124;-43
2023/10/06 07:57:48;;;;;;;14.37;6.13;;;;;;;25.80;37.80;100340.72;5050391;28;20052;-44
2023/10/06 08:00:27;;;;;;;10.05;5.43;;;;;;;25.60;37.61;100341.75;5053939;28;20053;-42
2023/10/06 08:02:53;;;;;;;12.15;5.88;;;;;;;26.55;36.92;100335.69;5054720;28;20054;-43
2023/10/06 08:05:19;;;;;;;11.52;5.50;;;;;;;26.75;36.75;100334.56;5054622;28;20036;-45
2023/10/06 08:07:45;;;;;;;13.57;5.47;;;;;;;27.10;35.70;100344.09;5054197;28;20035;-44
2023/10/06 08:10:16;;;;;;;10.35;5.07;;;;;;;26.42;36.10;100346.22;5054115;28;20029;-44
2023/10/06 08:12:43;;;;;;;10.52;5.22;;;;;;;26.59;36.34;100342.16;5054103;28;20016;-43
2023/10/06 08:15:09;;;;;;;12.80;5.78;;;;;;;26.57;36.20;100339.72;5054070;28;20035;-42
2023/10/06 08:17:38;;;;;;;9.73;5.57;;;;;;;26.68;35.47;100343.16;5048578;28;20086;-41
2023/10/06 08:20:07;;;;;;;10.57;5.50;;;;;;;26.16;36.38;100334.88;5051625;28;20132;-44
2023/10/06 08:22:34;;;;;;;11.00;5.72;;;;;;;26.87;35.34;100334.94;5053898;28;20354;-42
2023/10/06 08:25:02;;;;;;;9.40;5.63;;;;;;;27.52;34.92;100325.06;5053821;28;20548;-42
2023/10/06 08:27:28;;;;;;;11.57;5.55;;;;;;;27.87;33.97;100331.72;5053792;28;20048;-45
2023/10/06 08:29:54;;;;;;;10.07;5.18;;;;;;;27.83;34.00;100330.72;5050609;28;20467;-41
2023/10/06 08:32:19;;;;;;;8.88;5.22;;;;;;;27.94;33.69;100334.91;5046206;28;20017;-41
2023/10/06 08:34:46;;;;;;;9.52;5.30;;;;;;;27.42;34.14;100323.34;5050244;28;20021;-39
2023/10/06 08:37:15;;;;;;;12.75;5.68;;;;;;;27.34;34.73;100330.31;5051408;28;20074;-41
2023/10/06 08:39:40;;;;;;;9.18;5.32;;;;;;;27.77;34.10;100324.56;5053078;28;20099;-41
2023/10/06 08:42:18;;;;;;;10.93;5.20;;;;;;;27.89;33.91;100321.31;5053559;28;20128;-40
2023/10/06 08:44:44;;;;;;;12.45;5.28;;;;;;;27.27;34.71;100327.97;5048699;28;20392;-40
2023/10/06 08:47:13;;;;;;;10.35;5.30;;;;;;;27.43;34.84;100327.69;5053660;28;20055;-39
2023/10/06 08:49:43;;;;;;;11.98;5.78;;;;;;;27.96;34.05;100323.66;5054099;28;20386;-40
2023/10/06 08:52:12;;;;;;;13.02;5.43;;;;;;;28.42;33.40;100328.09;5050952;28;20033;-42
2023/10/06 08:54:39;;;;;;;12.27;5.82;;;;;;;28.59;32.71;100331.00;5053731;28;20033;-43
2023/10/06 08:57:04;;;;;;;8.32;5.03;;;;;;;28.62;32.58;100324.13;5052735;28;20033;-45
2023/10/06 08:59:34;;;;;;;10.73;5.57;;;;;;;28.20;32.99;100328.91;5052539;28;20059;-44
2023/10/06 09:02:01;;;;;;;13.35;5.80;;;;;;;28.00;33.51;100317.25;5052571;28;20119;-43
2023/10/06 09:04:38;;;;;;;10.82;5.07;;;;;;;27.76;33.98;100319.38;5033036;28;20047;-43
2023/10/06 09:07:16;;;;;;;11.48;5.72;;;;;;;27.48;34.14;100317.47;5032537;28;20033;-45
2023/10/06 09:09:43;;;;;;;11.63;5.30;;;;;;;27.12;34.75;100311.81;5031927;28;20105;-42
2023/10/06 09:12:31;;;;;;;9.73;5.28;;;;;;;27.35;34.62;100309.25;5032249;28;20029;-45
2023/10/06 09:14:57;;;;;;;15.20;6.10;;;;;;;27.58;34.08;100307.44;5032985;28;20476;-44
2023/10/06 09:17:33;;;;;;;9.98;5.63;;;;;;;27.32;34.49;100301.66;5032807;28;20517;-46
2023/10/06 09:19:59;;;;;;;12.18;5.82;;;;;;;27.62;34.06;100303.00;5032549;28;20056;-42
2023/10/06 09:22:29;;;;;;;11.57;5.43;;;;;;;27.26;34.60;100304.50;5033216;28;20022;-42
2023/10/06 09:25:04;;;;;;;11.70;5.55;;;;;;;27.42;34.54;100307.75;5032825;28;20044;-44
2023/10/06 09:27:32;;;;;;;14.25;5.40;;;;;;;27.48;34.35;100297.53;5050790;28;20112;-44
2023/10/06 09:30:07;;;;;;;10.55;5.35;;;;;;;27.22;35.31;100297.97;5052329;28;20048;-43
2023/10/06 09:32:34;;;;;;;9.63;5.57;;;;;;;28.21;34.15;100300.41;5052771;28;20032;-43
2023/10/06 09:35:18;;;;;;;9.95;5.90;;;;;;;28.06;33.86;100296.06;5052463;28;20481;-44
2023/10/06 09:37:44;;;;;;;13.32;6.03;;;;;;;28.23;33.86;100301.69;5051337;28;20027;-42
2023/10/06 09:40:22;;;;;;;10.80;5.72;;;;;;;28.71;33.06;100292.16;5052566;28;20029;-42
2023/10/06 09:42:49;;;;;;;12.05;6.18;;;;;;;28.58;32.80;100290.28;5052197;28;20067;-46
2023/10/06 09:45:24;;;;;;;12.57;5.85;;;;;;;28.77;33.01;100292.81;5052435;28;20120;-46
2023/10/06 09:47:56;;;;;;;11.70;5.90;;;;;;;28.65;33.16;100293.38;5052449;28;20485;-44
2023/10/06 09:50:22;;;;;;;13.02;5.70;;;;;;;28.89;32.87;100282.09;5052525;28;20040;-43
2023/10/06 09:52:50;;;;;;;12.80;5.85;;;;;;;29.24;32.43;100285.03;5052200;28;20028;-45
2023/10/06 09:55:20;;;;;;;11.77;5.93;;;;;;;29.29;32.65;100273.16;5052028;28;20028;-44
2023/10/06 09:57:47;;;;;;;12.88;5.85;;;;;;;29.44;32.18;100272.72;5052801;28;20404;-43
2023/10/06 10:00:18;;;;;;;12.93;6.32;;;;;;;29.61;32.03;100267.28;5052627;28;20059;-45
2023/10/06 10:02:47;;;;;;;11.85;5.82;;;;;;;29.98;31.64;100272.53;5052382;28;20074;-43
2023/10/06 10:05:22;;;;;;;15.68;5.38;;;;;;;29.92;31.68;100265.59;5052268;28;20075;-43
2023/10/06 10:07:50;;;;;;;10.55;5.47;;;;;;;29.42;31.62;100247.56;5051972;28;20027;-44
2023/10/06 10:10:22;;;;;;;8.98;5.55;;;;;;;29.58;31.64;100253.41;5052186;28;20434;-44
2023/10/06 10:13:23;;;;;;;11.80;5.68;;;;;;;28.98;32.35;100258.31;5051974;28;20087;-44
2023/10/06 10:16:12;;;;;;;13.82;5.72;;;;;;;29.73;31.42;100252.97;5051558;28;20021;-46
2023/10/06 10:18:39;;;;;;;11.60;6.03;;;;;;;29.69;31.87;100251.16;5051492;28;20017;-45
2023/10/06 10:21:08;;;;;;;10.00;5.82;;;;;;;29.73;31.50;100247.47;5051268;28;20045;-47
2023/10/06 10:23:37;;;;;;;8.95;5.32;;;;;;;30.28;31.40;100243.31;5051479;28;20037;-45
2023/10/06 10:26:28;;;;;;;10.68;5.95;;;;;;;30.49;30.18;100242.69;5051421;28;20135;-44
2023/10/06 10:29:17;;;;;;;14.77;5.65;;;;;;;30.83;29.80;100232.75;5051318;28;20496;-45
2023/10/06 10:31:47;;;;;;;10.80;5.22;;;;;;;29.50;31.02;100241.28;5051951;28;20033;-44
2023/10/06 10:34:20;;;;;;;9.40;5.53;;;;;;;29.74;30.39;100234.56;5051215;28;20112;-47
2023/10/06 10:36:48;;;;;;;7.90;5.05;;;;;;;29.83;29.94;100224.44;5051166;28;20025;-45
2023/10/06 10:39:17;;;;;;;11.93;5.40;;;;;;;29.88;30.09;100212.50;5051285;28;20059;-42
2023/10/06 10:41:45;;;;;;;9.07;5.18;;;;;;;30.29;30.04;100208.44;5051444;28;20484;-48
2023/10/06 10:44:12;;;;;;;9.73;5.53;;;;;;;30.54;30.03;100204.88;5051596;28;20025;-43
2023/10/06 10:46:48;;;;;;;8.63;5.20;;;;;;;31.13;29.15;100195.97;5051769;28;20451;-43
2023/10/06 10:49:19;;;;;;;13.30;5.30;;;;;;;31.47;28.90;100202.47;5051582;28;20036;-44
2023/10/06 10:52:00;;;;;;;9.82;5.70;;;;;;;31.24;28.69;100193.63;5051307;28;20021;-45
2023/10/06 10:54:31;;;;;;;9.82;5.30;;;;;;;30.44;29.17;100185.19;5050914;28;20090;-44
2023/10/06 10:57:13;;;;;;;10.30;5.45;;;;;;;30.32;29.65;100189.41;5051140;28;20083;-44
2023/10/06 11:00:22;;;;;;;10.00;5.78;;;;;;;30.72;29.34;100186.41;5051017;28;20024;-44
2023/10/06 11:02:52;;;;;;;9.88;5.72;;;;;;;31.08;29.28;100182.41;5051155;28;20043;-41
2023/10/06 11:05:21;;;;;;;11.68;5.78;;;;;;;31.28;29.08;100171.78;5051230;28;20423;-44
2023/10/06 11:08:01;;;;;;;12.23;6.38;;;;;;;31.41;28.96;100175.44;5050751;28;20036;-44
2023/10/06 11:10:27;;;;;;;11.43;6.75;;;;;;;31.55;28.90;100165.84;5051314;28;20029;-43
2023/10/06 11:13:19;;;;;;;10.95;6.15;;;;;;;31.66;29.03;100155.25;5051165;28;20507;-47
2023/10/06 11:15:44;;;;;;;10.85;5.90;;;;;;;31.04;29.10;100147.69;5050841;28;20341;-45
2023/10/06 11:18:10;;;;;;;8.23;5.68;;;;;;;31.25;28.99;100150.50;5050936;28;20488;-47
2023/10/06 11:20:39;;;;;;;10.68;6.20;;;;;;;31.73;28.59;100151.94;5050788;28;20021;-46
2023/10/06 11:23:05;;;;;;;10.63;6.65;;;;;;;31.47;28.61;100144.72;5051169;28;20044;-46
2023/10/06 11:25:32;;;;;;;11.02;6.20;;;;;;;31.60;28.90;100144.78;5050760;28;20443;-44
2023/10/06 11:28:02;;;;;;;13.23;6.55;;;;;;;31.92;28.48;100145.97;5051126;28;20481;-44
2023/10/06 11:30:28;;;;;;;8.48;5.80;;;;;;;32.04;28.05;100139.72;5050903;28;20484;-44